Time;durP1;ratioP1;P1;durP2;ratioP2;P2;SDS_P1;SDS_P2;PMS_P1;PMS_P2;Temp;Humidity;BMP_temperature;BMP_pressure;BME280_temperature;BME280_humidity;BME280_pressure;Samples;Min_cycle;Max_cycle;Signal;HPM_P1;HPM_P2
2023/03/05 03:02:51;;;;;;;38.93;25.03;;;3.20;99.90;;;;;;4914426;29;20215;-77
2023/03/05 03:05:18;;;;;;;40.60;27.57;;;3.20;99.90;;;;;;4916447;29;20632;-78
2023/03/05 03:07:45;;;;;;;44.90;28.83;;;3.20;99.90;;;;;;4917253;29;20214;-78
2023/03/05 03:10:12;;;;;;;38.90;25.90;;;3.10;99.90;;;;;;4917062;29;20215;-78
2023/03/05 03:12:40;;;;;;;34.33;24.43;;;3.10;99.90;;;;;;4917648;29;20255;-77
2023/03/05 03:15:09;;;;;;;37.50;26.50;;;3.20;99.90;;;;;;4917471;29;20211;-77
2023/03/05 03:17:37;;;;;;;29.97;23.93;;;3.10;99.90;;;;;;4910060;29;20226;-78
2023/03/05 03:20:08;;;;;;;34.97;25.40;;;3.10;99.90;;;;;;4917845;29;20263;-78
2023/03/05 03:22:35;;;;;;;38.57;25.77;;;3.10;99.90;;;;;;4917215;29;20212;-78
2023/03/05 03:25:02;;;;;;;33.50;24.77;;;3.10;99.90;;;;;;4917744;29;20204;-78
2023/03/05 03:27:28;;;;;;;35.07;25.20;;;3.20;99.90;;;;;;4915893;29;20210;-78
2023/03/05 03:29:55;;;;;;;37.17;26.43;;;3.10;99.90;;;;;;4916542;29;20207;-78
2023/03/05 03:32:22;;;;;;;39.23;25.17;;;3.10;99.90;;;;;;4916032;29;20243;-78
2023/03/05 03:34:49;;;;;;;36.43;25.43;;;3.10;99.90;;;;;;4916587;29;20303;-78
2023/03/05 03:37:17;;;;;;;33.90;24.60;;;3.10;99.90;;;;;;4916537;29;20625;-79
2023/03/05 03:39:44;;;;;;;30.97;23.37;;;3.10;99.90;;;;;;4916757;29;20259;-78
2023/03/05 03:42:10;;;;;;;31.43;24.07;;;3.10;99.90;;;;;;4917069;29;20664;-77
2023/03/05 03:44:37;;;;;;;39.13;26.83;;;3.10;99.90;;;;;;4917580;29;20196;-79
2023/03/05 03:47:04;;;;;;;41.33;27.00;;;3.10;99.90;;;;;;4916632;29;20624;-81
2023/03/05 03:49:31;;;;;;;32.23;24.27;;;3.10;99.90;;;;;;4914605;29;20225;-83
2023/03/05 03:51:58;;;;;;;33.63;25.27;;;3.10;99.90;;;;;;4917279;29;20258;-83
2023/03/05 03:54:26;;;;;;;34.67;25.43;;;3.20;99.90;;;;;;4916059;29;20215;-83
2023/03/05 03:56:53;;;;;;;40.60;27.47;;;3.20;99.90;;;;;;4915760;29;20627;-82
2023/03/05 03:59:20;;;;;;;36.50;26.63;;;3.20;99.90;;;;;;4916091;29;20630;-83
2023/03/05 04:01:47;;;;;;;37.17;26.13;;;3.20;99.90;;;;;;4916360;29;20227;-84
2023/03/05 04:04:14;;;;;;;34.60;25.00;;;3.20;99.90;;;;;;4916459;29;20231;-84
2023/03/05 04:06:41;;;;;;;35.43;25.93;;;3.20;99.90;;;;;;4916193;29;20200;-84
2023/03/05 04:09:08;;;;;;;35.10;25.80;;;3.20;99.90;;;;;;4912679;29;20196;-84
2023/03/05 04:11:37;;;;;;;35.60;26.20;;;3.20;99.90;;;;;;4910520;29;20709;-84
2023/03/05 04:14:05;;;;;;;34.07;25.00;;;3.20;99.90;;;;;;4912560;29;20207;-84
2023/03/05 04:16:32;;;;;;;34.67;24.50;;;3.20;99.90;;;;;;4902513;29;20208;-84
2023/03/05 04:18:59;;;;;;;35.97;24.83;;;3.20;99.90;;;;;;4910600;29;20729;-84
2023/03/05 04:21:25;;;;;;;35.47;24.47;;;3.10;99.90;;;;;;4916008;29;20223;-83
2023/03/05 04:23:52;;;;;;;34.27;25.90;;;3.10;99.90;;;;;;4917626;29;20231;-82
2023/03/05 04:26:19;;;;;;;34.77;24.57;;;3.20;99.90;;;;;;4916611;29;20902;-80
2023/03/05 04:28:48;;;;;;;31.77;24.63;;;3.20;99.90;;;;;;4916412;29;20248;-81
2023/03/05 04:31:16;;;;;;;40.17;24.97;;;3.20;99.90;;;;;;4914865;29;20231;-82
2023/03/05 04:33:42;;;;;;;34.43;24.37;;;3.20;99.90;;;;;;4915740;29;20212;-86
2023/03/05 04:36:09;;;;;;;38.07;25.30;;;3.20;99.90;;;;;;4915849;29;20200;-81
2023/03/05 04:38:36;;;;;;;32.50;23.30;;;3.30;99.90;;;;;;4907767;29;20204;-82
2023/03/05 04:41:03;;;;;;;35.00;24.23;;;3.30;99.90;;;;;;4920712;29;20279;-83
2023/03/05 04:43:30;;;;;;;36.97;25.87;;;3.20;99.90;;;;;;4920489;29;20275;-82
2023/03/05 04:45:58;;;;;;;36.37;25.43;;;3.20;99.90;;;;;;4920439;29;20215;-78
2023/03/05 04:48:25;;;;;;;38.33;26.03;;;3.20;99.90;;;;;;4917674;29;20208;-78
2023/03/05 04:50:52;;;;;;;34.33;24.53;;;3.20;99.90;;;;;;4913746;29;20292;-78
2023/03/05 04:53:18;;;;;;;38.07;26.20;;;3.20;99.90;;;;;;4920152;29;20574;-78
2023/03/05 04:55:45;;;;;;;33.37;24.33;;;3.20;99.90;;;;;;4918869;29;20211;-78
2023/03/05 04:58:12;;;;;;;35.33;24.33;;;3.20;99.90;;;;;;4920211;29;20220;-78
2023/03/05 05:00:39;;;;;;;34.20;24.73;;;3.20;99.90;;;;;;4918557;29;20204;-78
2023/03/05 05:03:07;;;;;;;36.40;25.13;;;3.20;99.90;;;;;;4920433;29;20210;-78
2023/03/05 05:05:34;;;;;;;34.83;25.10;;;3.20;99.90;;;;;;4919489;29;20223;-78
2023/03/05 05:08:01;;;;;;;33.80;24.73;;;3.20;99.90;;;;;;4917929;29;20263;-78
2023/03/05 05:10:27;;;;;;;36.80;24.63;;;3.20;99.90;;;;;;4918270;29;20240;-78
2023/03/05 05:12:54;;;;;;;33.93;25.07;;;3.20;99.90;;;;;;4920000;29;20580;-78
2023/03/05 05:15:21;;;;;;;33.60;24.03;;;3.20;99.90;;;;;;4919258;29;20624;-78
2023/03/05 05:17:48;;;;;;;35.13;24.77;;;3.20;99.90;;;;;;4918521;29;20199;-78
2023/03/05 05:20:17;;;;;;;37.10;25.00;;;3.20;99.90;;;;;;4919335;29;20771;-78
2023/03/05 05:22:44;;;;;;;35.00;24.73;;;3.20;99.90;;;;;;4919607;29;20288;-78
2023/03/05 05:25:11;;;;;;;34.23;25.17;;;3.20;99.90;;;;;;4918071;29;20203;-78
2023/03/05 05:27:38;;;;;;;34.50;25.30;;;3.20;99.90;;;;;;4919327;29;20196;-78
2023/03/05 05:30:06;;;;;;;32.13;24.87;;;3.20;99.90;;;;;;4919282;29;20671;-78
2023/03/05 05:32:33;;;;;;;32.40;25.20;;;3.20;99.90;;;;;;4919218;29;20226;-78
2023/03/05 05:35:00;;;;;;;36.27;23.87;;;3.20;99.90;;;;;;4917627;29;20208;-78
2023/03/05 05:37:29;;;;;;;38.33;25.67;;;3.20;99.90;;;;;;4917898;29;20231;-78
2023/03/05 05:39:56;;;;;;;35.80;25.37;;;3.10;99.90;;;;;;4919781;29;20231;-78
2023/03/05 05:42:24;;;;;;;37.10;24.07;;;3.20;99.90;;;;;;4918086;29;20251;-78
2023/03/05 05:44:51;;;;;;;34.67;24.73;;;3.20;99.90;;;;;;4917860;29;20675;-79
2023/03/05 05:47:19;;;;;;;29.37;24.53;;;3.20;99.90;;;;;;4918026;29;20219;-78
2023/03/05 05:49:46;;;;;;;37.77;27.17;;;3.20;99.90;;;;;;4919626;29;20196;-78
2023/03/05 05:52:14;;;;;;;36.30;26.10;;;3.20;99.90;;;;;;4917837;29;20299;-78
2023/03/05 05:54:42;;;;;;;37.43;25.43;;;3.20;99.90;;;;;;4917902;29;20637;-78
2023/03/05 05:57:09;;;;;;;37.40;25.73;;;3.10;99.90;;;;;;4918896;29;20211;-78
2023/03/05 05:59:36;;;;;;;37.47;25.00;;;3.20;99.90;;;;;;4917671;29;20263;-82
2023/03/05 06:02:03;;;;;;;37.07;26.30;;;3.20;99.90;;;;;;4920449;29;20231;-81
2023/03/05 06:04:29;;;;;;;34.43;25.53;;;3.20;99.90;;;;;;4920271;29;20267;-78
2023/03/05 06:06:56;;;;;;;32.13;24.03;;;3.20;99.90;;;;;;4918443;29;20231;-77
2023/03/05 06:09:23;;;;;;;35.27;25.37;;;3.10;99.90;;;;;;4917870;29;20231;-78
2023/03/05 06:11:51;;;;;;;32.77;24.73;;;3.20;99.90;;;;;;4919005;29;20228;-82
2023/03/05 06:14:18;;;;;;;35.53;24.80;;;3.20;99.90;;;;;;4920324;29;20214;-81
2023/03/05 06:16:45;;;;;;;37.40;25.40;;;3.20;99.90;;;;;;4919576;29;20219;-81
2023/03/05 06:19:13;;;;;;;33.20;25.27;;;3.20;99.90;;;;;;4919246;29;20276;-80
2023/03/05 06:21:40;;;;;;;37.87;26.30;;;3.20;99.90;;;;;;4912170;29;20231;-82
2023/03/05 06:24:07;;;;;;;38.13;26.50;;;3.20;99.90;;;;;;4919998;29;20220;-80
2023/03/05 06:26:34;;;;;;;41.47;27.13;;;3.20;99.90;;;;;;4919667;29;20571;-80
2023/03/05 06:29:02;;;;;;;38.83;27.03;;;3.20;99.90;;;;;;4920089;29;20224;-79
2023/03/05 06:31:29;;;;;;;36.57;25.90;;;3.20;99.90;;;;;;4918022;29;20226;-81
2023/03/05 06:34:00;;;;;;;37.60;25.83;;;3.20;99.90;;;;;;4917081;29;20300;-80
2023/03/05 06:36:28;;;;;;;37.83;25.13;;;3.20;99.90;;;;;;4916232;29;20679;-81
2023/03/05 06:38:56;;;;;;;31.63;23.33;;;3.20;99.90;;;;;;4916119;29;20207;-82
2023/03/05 06:41:27;;;;;;;31.93;23.47;;;3.20;99.90;;;;;;4916446;29;20870;-81
2023/03/05 06:43:55;;;;;;;32.33;24.10;;;3.20;99.90;;;;;;4916116;29;20599;-82
2023/03/05 06:46:25;;;;;;;33.57;23.47;;;3.20;99.90;;;;;;4916067;29;20208;-82
2023/03/05 06:48:54;;;;;;;31.23;23.50;;;3.30;99.90;;;;;;4916434;29;20733;-82
2023/03/05 06:51:24;;;;;;;32.20;24.87;;;3.30;99.90;;;;;;4918160;29;20239;-81
2023/03/05 06:53:51;;;;;;;32.70;23.63;;;3.30;99.90;;;;;;4916095;29;20264;-82
2023/03/05 06:56:18;;;;;;;33.63;24.40;;;3.30;99.90;;;;;;4915867;29;20255;-83
2023/03/05 06:58:47;;;;;;;34.57;25.27;;;3.30;99.90;;;;;;4915961;29;20252;-83
2023/03/05 07:01:15;;;;;;;33.07;24.13;;;3.30;99.90;;;;;;4916615;29;20245;-81
2023/03/05 07:03:43;;;;;;;34.33;23.77;;;3.40;99.90;;;;;;4915327;29;20203;-81
2023/03/05 07:06:12;;;;;;;31.80;24.30;;;3.40;99.90;;;;;;4916524;29;20204;-81
2023/03/05 07:08:39;;;;;;;33.80;25.43;;;3.50;99.90;;;;;;4915420;29;20204;-81
2023/03/05 07:11:10;;;;;;;34.27;24.27;;;3.50;99.90;;;;;;4917094;29;20224;-82
2023/03/05 07:13:36;;;;;;;34.17;23.07;;;3.50;99.90;;;;;;4915473;29;20706;-83
2023/03/05 07:16:06;;;;;;;33.47;24.27;;;3.60;99.90;;;;;;4915780;29;20675;-82
2023/03/05 07:18:33;;;;;;;30.00;22.47;;;3.60;99.90;;;;;;4916673;29;20239;-82
2023/03/05 07:21:03;;;;;;;29.03;22.03;;;3.70;99.90;;;;;;4917390;29;20321;-79
2023/03/05 07:23:30;;;;;;;29.90;21.83;;;3.70;99.90;;;;;;4916911;29;20192;-80
2023/03/05 07:25:57;;;;;;;31.93;21.83;;;3.80;99.90;;;;;;4916358;29;20674;-80
2023/03/05 07:28:24;;;;;;;31.57;22.10;;;3.80;99.90;;;;;;4916428;29;20196;-80
2023/03/05 07:30:58;;;;;;;28.30;21.63;;;3.80;99.90;;;;;;4915111;29;20220;-81
2023/03/05 07:33:25;;;;;;;27.03;20.70;;;3.80;99.90;;;;;;4916655;29;20230;-81
2023/03/05 07:35:52;;;;;;;26.57;21.30;;;3.90;99.90;;;;;;4916901;29;20588;-81
2023/03/05 07:38:20;;;;;;;30.20;21.73;;;3.90;99.90;;;;;;4916204;29;20228;-81
2023/03/05 07:40:47;;;;;;;30.87;23.33;;;4.00;99.90;;;;;;4915056;29;20302;-82
2023/03/05 07:43:14;;;;;;;30.13;22.10;;;4.00;99.90;;;;;;4916255;29;20670;-82
2023/03/05 07:45:42;;;;;;;29.40;21.40;;;4.10;99.90;;;;;;4908630;29;20698;-81
2023/03/05 07:48:13;;;;;;;26.03;21.27;;;4.10;99.90;;;;;;4912901;29;20204;-82
2023/03/05 07:50:40;;;;;;;25.97;20.43;;;4.10;99.90;;;;;;4912024;29;20205;-82
2023/03/05 07:53:07;;;;;;;33.60;22.47;;;4.20;99.90;;;;;;4905608;29;20713;-82
2023/03/05 07:55:41;;;;;;;26.87;21.73;;;4.30;99.90;;;;;;4915991;29;20200;-82
2023/03/05 07:58:08;;;;;;;28.40;20.90;;;4.30;99.90;;;;;;4915967;29;20203;-82
2023/03/05 08:00:34;;;;;;;27.20;21.07;;;4.40;99.90;;;;;;4916322;29;20200;-82
2023/03/05 08:03:01;;;;;;;28.83;21.90;;;4.40;99.90;;;;;;4916349;29;20265;-82
2023/03/05 08:05:28;;;;;;;25.00;20.90;;;4.40;99.90;;;;;;4915722;29;20200;-83
2023/03/05 08:07:55;;;;;;;24.37;20.20;;;4.40;99.90;;;;;;4915144;29;20217;-83
2023/03/05 08:10:22;;;;;;;29.33;21.17;;;4.50;99.90;;;;;;4914651;29;20210;-82
2023/03/05 08:12:50;;;;;;;24.80;21.17;;;4.50;99.90;;;;;;4915965;29;20251;-82
2023/03/05 08:15:17;;;;;;;25.37;21.40;;;4.50;99.90;;;;;;4918578;29;20225;-82
2023/03/05 08:17:44;;;;;;;27.53;21.10;;;4.50;99.90;;;;;;4918296;29;20561;-82
2023/03/05 08:20:12;;;;;;;25.77;21.33;;;4.50;99.90;;;;;;4918458;29;20219;-82
2023/03/05 08:22:39;;;;;;;26.77;21.40;;;4.60;99.90;;;;;;4918734;29;20650;-82
2023/03/05 08:25:07;;;;;;;26.67;20.00;;;4.60;99.90;;;;;;4919872;29;20211;-82
2023/03/05 08:27:37;;;;;;;25.40;19.93;;;4.60;99.90;;;;;;4918772;29;20199;-82
2023/03/05 08:30:06;;;;;;;27.30;20.73;;;4.70;99.90;;;;;;4918968;29;20633;-81
2023/03/05 08:32:33;;;;;;;28.70;21.17;;;4.70;99.90;;;;;;4917862;29;20228;-81
2023/03/05 08:35:01;;;;;;;29.97;21.07;;;4.70;99.90;;;;;;4920628;29;20212;-83
2023/03/05 08:37:28;;;;;;;26.50;21.27;;;4.70;99.90;;;;;;4919251;29;20216;-82
2023/03/05 08:39:56;;;;;;;28.30;20.97;;;4.80;99.90;;;;;;4920220;29;20259;-82
2023/03/05 08:42:23;;;;;;;27.37;20.63;;;4.70;99.90;;;;;;4918757;29;20711;-81
2023/03/05 08:44:50;;;;;;;31.93;22.57;;;4.80;99.90;;;;;;4918871;29;20276;-81
2023/03/05 08:47:19;;;;;;;26.20;19.40;;;4.80;99.90;;;;;;4918418;29;20582;-82
2023/03/05 08:49:46;;;;;;;30.87;22.10;;;4.90;99.90;;;;;;4918668;29;20204;-81
2023/03/05 08:52:13;;;;;;;28.13;22.23;;;5.00;99.90;;;;;;4918811;29;20229;-82
2023/03/05 08:54:40;;;;;;;27.33;21.93;;;5.00;99.90;;;;;;4918580;29;20239;-82
2023/03/05 08:57:07;;;;;;;30.47;21.73;;;5.00;99.90;;;;;;4917795;29;20293;-82
2023/03/05 08:59:34;;;;;;;25.40;20.80;;;5.10;99.90;;;;;;4918287;29;20291;-82
2023/03/05 09:02:01;;;;;;;27.20;21.10;;;5.20;99.90;;;;;;4920802;29;20707;-82
2023/03/05 09:04:30;;;;;;;23.93;20.50;;;5.20;99.90;;;;;;4920241;29;20198;-82
2023/03/05 09:06:57;;;;;;;26.40;20.87;;;5.20;99.90;;;;;;4918458;29;20201;-81
2023/03/05 09:09:24;;;;;;;26.83;20.97;;;5.20;99.90;;;;;;4919190;29;20299;-81
2023/03/05 09:11:51;;;;;;;26.37;20.40;;;5.30;99.90;;;;;;4914852;29;20223;-82
2023/03/05 09:14:18;;;;;;;26.90;20.97;;;5.40;99.90;;;;;;4917671;29;20230;-82
2023/03/05 09:16:45;;;;;;;24.23;19.30;;;5.50;99.90;;;;;;4915753;29;20269;-82
2023/03/05 09:19:13;;;;;;;23.93;18.40;;;5.50;99.90;;;;;;4916090;29;20209;-83
2023/03/05 09:21:42;;;;;;;24.27;19.63;;;5.50;99.90;;;;;;4919370;29;20228;-81
2023/03/05 09:24:10;;;;;;;25.07;19.87;;;5.50;99.90;;;;;;4918826;29;20278;-82
2023/03/05 09:26:37;;;;;;;23.50;19.77;;;5.50;99.90;;;;;;4917276;29;20656;-83
2023/03/05 09:29:06;;;;;;;25.27;19.20;;;5.60;99.90;;;;;;4918123;29;20213;-82
2023/03/05 09:31:33;;;;;;;23.97;20.17;;;5.70;99.90;;;;;;4918244;29;20593;-83
2023/03/05 09:33:59;;;;;;;23.17;19.57;;;5.90;99.90;;;;;;4915279;29;20254;-82
2023/03/05 09:36:30;;;;;;;26.63;21.23;;;5.90;99.90;;;;;;4917013;29;20219;-82
2023/03/05 09:38:58;;;;;;;24.00;20.10;;;5.90;99.90;;;;;;4917565;29;20210;-83
2023/03/05 09:41:35;;;;;;;25.67;20.73;;;6.00;99.90;;;;;;4917857;29;20230;-83
2023/03/05 09:44:12;;;;;;;24.90;20.10;;;6.00;99.90;;;;;;4918942;29;20205;-83
2023/03/05 09:46:47;;;;;;;27.40;21.07;;;6.10;99.90;;;;;;4917897;29;20532;-80
2023/03/05 09:49:20;;;;;;;26.17;20.73;;;6.10;99.90;;;;;;4917091;29;20574;-78
2023/03/05 09:51:51;;;;;;;24.67;20.53;;;6.20;99.90;;;;;;4917947;29;20664;-78
2023/03/05 09:54:24;;;;;;;26.70;21.57;;;6.30;99.90;;;;;;4919125;29;20223;-80
2023/03/05 09:56:56;;;;;;;23.17;20.13;;;6.30;99.90;;;;;;4918314;29;20203;-84
2023/03/05 09:59:30;;;;;;;25.00;19.60;;;6.30;99.90;;;;;;4915888;29;20235;-81
2023/03/05 10:02:02;;;;;;;22.43;19.80;;;6.30;99.90;;;;;;4915815;29;20779;-82
2023/03/05 10:04:42;;;;;;;23.00;19.73;;;6.40;99.90;;;;;;4915616;29;20199;-82
2023/03/05 10:07:16;;;;;;;21.03;18.10;;;6.40;99.90;;;;;;4915692;29;20584;-82
2023/03/05 10:09:51;;;;;;;21.07;18.43;;;6.40;99.90;;;;;;4915078;29;20199;-82
2023/03/05 10:12:26;;;;;;;20.63;18.50;;;6.50;99.90;;;;;;4916256;29;20610;-82
2023/03/05 10:14:59;;;;;;;22.43;18.90;;;6.50;99.90;;;;;;4910117;29;20717;-82
2023/03/05 10:17:57;;;;;;;26.63;20.07;;;6.50;99.90;;;;;;4916270;29;20258;-84
2023/03/05 10:20:51;;;;;;;22.50;19.33;;;6.40;99.90;;;;;;4916294;29;20259;-83
2023/03/05 10:23:33;;;;;;;21.63;19.33;;;6.40;99.90;;;;;;4912806;29;20215;-83
2023/03/05 10:26:14;;;;;;;22.50;19.67;;;6.40;99.90;;;;;;4931057;29;20215;-83
2023/03/05 10:28:48;;;;;;;20.70;18.43;;;6.40;99.90;;;;;;4914011;29;20612;-82
2023/03/05 10:31:36;;;;;;;22.43;18.97;;;6.60;99.90;;;;;;4916230;29;20781;-82
2023/03/05 10:34:30;;;;;;;22.47;18.27;;;6.80;99.90;;;;;;4915240;29;20220;-84
2023/03/05 10:37:16;;;;;;;21.43;18.63;;;7.00;99.90;;;;;;4914223;29;20208;-78
2023/03/05 10:39:57;;;;;;;21.47;18.23;;;7.10;99.90;;;;;;4909133;29;20212;-78
2023/03/05 10:42:32;;;;;;;19.03;17.03;;;7.10;99.90;;;;;;4915061;29;20291;-78
2023/03/05 10:45:00;;;;;;;21.27;18.43;;;7.20;99.90;;;;;;4909467;29;20199;-78
2023/03/05 10:47:37;;;;;;;21.77;18.03;;;7.20;99.90;;;;;;4912074;29;20204;-78
2023/03/05 10:50:15;;;;;;;20.37;18.03;;;7.30;99.90;;;;;;4929463;29;20204;-79
2023/03/05 10:52:47;;;;;;;22.90;19.13;;;7.40;99.90;;;;;;4916109;29;20271;-78
2023/03/05 10:55:16;;;;;;;20.37;18.13;;;7.30;99.90;;;;;;4916739;29;20242;-78
2023/03/05 10:57:45;;;;;;;20.83;17.23;;;7.30;99.90;;;;;;4906637;29;20197;-78
2023/03/05 11:00:19;;;;;;;20.20;17.63;;;7.30;99.90;;;;;;4908087;29;20204;-80
2023/03/05 11:03:06;;;;;;;19.07;17.07;;;7.40;99.90;;;;;;5130708;27;20939;-78
2023/03/05 11:05:40;;;;;;;19.97;18.00;;;7.40;99.90;;;;;;5104756;28;20197;-78
2023/03/05 11:08:30;;;;;;;19.87;17.80;;;7.40;99.90;;;;;;5119331;28;20216;-78
2023/03/05 11:11:10;;;;;;;18.73;16.37;;;7.30;99.90;;;;;;5112307;28;20217;-79
2023/03/05 11:13:41;;;;;;;20.60;17.27;;;7.30;99.90;;;;;;5104825;28;20193;-81
2023/03/05 11:16:17;;;;;;;19.97;17.43;;;7.20;99.90;;;;;;5100624;28;20778;-80
2023/03/05 11:18:45;;;;;;;18.97;17.07;;;7.10;99.90;;;;;;5103976;28;20236;-79
2023/03/05 11:21:19;;;;;;;18.93;16.90;;;7.00;99.90;;;;;;5102220;28;20296;-82
2023/03/05 11:24:04;;;;;;;18.20;16.40;;;7.00;99.90;;;;;;5105227;28;20224;-79
2023/03/05 11:26:31;;;;;;;18.07;16.27;;;7.00;99.90;;;;;;5108221;28;20189;-79
2023/03/05 11:29:01;;;;;;;21.17;17.93;;;7.10;99.90;;;;;;5098953;28;20201;-80
2023/03/05 11:31:29;;;;;;;19.17;17.10;;;6.90;99.90;;;;;;5104558;28;20213;-80
2023/03/05 11:34:00;;;;;;;20.43;17.77;;;6.80;99.90;;;;;;5108096;28;20670;-79
2023/03/05 11:36:30;;;;;;;18.80;16.90;;;6.80;99.90;;;;;;5104846;28;20253;-80
2023/03/05 11:39:00;;;;;;;18.87;16.90;;;6.80;99.90;;;;;;5101327;28;20588;-79
2023/03/05 11:41:35;;;;;;;19.23;17.17;;;6.80;99.90;;;;;;5105120;28;20231;-78
2023/03/05 11:44:05;;;;;;;18.90;16.93;;;6.80;99.90;;;;;;5103988;28;20196;-83
2023/03/05 11:46:41;;;;;;;19.53;17.43;;;6.80;99.90;;;;;;5109356;28;20209;-82
2023/03/05 11:49:14;;;;;;;20.53;17.47;;;6.70;99.90;;;;;;5096809;28;20204;-84
2023/03/05 11:51:45;;;;;;;20.83;17.57;;;6.70;99.90;;;;;;5104661;28;20234;-84
2023/03/05 11:54:17;;;;;;;20.53;17.13;;;6.60;99.90;;;;;;5105309;28;20202;-83
2023/03/05 11:56:46;;;;;;;20.37;18.23;;;6.50;99.90;;;;;;5106906;28;20204;-83
2023/03/05 11:59:17;;;;;;;19.20;17.03;;;6.50;99.90;;;;;;5102002;28;20226;-82
2023/03/05 12:01:47;;;;;;;19.30;16.20;;;6.50;99.90;;;;;;5107659;28;20224;-79
2023/03/05 12:04:16;;;;;;;20.40;16.40;;;6.50;99.90;;;;;;5107004;28;20249;-82
2023/03/05 12:06:46;;;;;;;19.47;16.27;;;6.50;99.90;;;;;;5100206;28;20209;-81
2023/03/05 12:09:20;;;;;;;18.33;16.43;;;6.60;99.90;;;;;;5105260;28;20207;-78
2023/03/05 12:11:49;;;;;;;17.03;15.43;;;6.60;99.90;;;;;;5098926;28;20212;-78
2023/03/05 12:14:22;;;;;;;17.27;15.53;;;6.50;99.90;;;;;;5079265;28;20197;-78
2023/03/05 12:16:56;;;;;;;17.73;15.87;;;6.50;99.90;;;;;;5086267;28;20201;-78
2023/03/05 12:19:37;;;;;;;19.33;17.30;;;6.50;99.90;;;;;;5115976;27;20190;-78
2023/03/05 12:22:13;;;;;;;19.50;17.30;;;6.50;99.90;;;;;;5088702;28;20221;-79
2023/03/05 12:24:40;;;;;;;17.73;15.60;;;6.50;99.90;;;;;;5091222;28;20205;-79
2023/03/05 12:27:10;;;;;;;18.77;16.77;;;6.50;99.90;;;;;;5086159;28;20205;-78
2023/03/05 12:29:43;;;;;;;19.53;17.50;;;6.50;99.90;;;;;;5091660;28;20236;-79
2023/03/05 12:33:01;;;;;;;19.20;17.20;;;6.50;99.90;;;;;;5089315;28;20228;-78
2023/03/05 12:35:37;;;;;;;17.93;16.10;;;6.50;99.90;;;;;;5087823;28;20295;-79
2023/03/05 12:38:17;;;;;;;18.87;16.33;;;6.50;99.90;;;;;;5086897;28;20270;-81
2023/03/05 12:40:44;;;;;;;18.47;16.57;;;6.50;99.90;;;;;;5093867;28;20287;-78
2023/03/05 12:43:30;;;;;;;18.17;16.33;;;6.50;99.90;;;;;;5095702;28;20766;-78
2023/03/05 12:46:25;;;;;;;19.53;17.37;;;6.50;99.90;;;;;;5089640;28;20209;-79
2023/03/05 12:48:52;;;;;;;19.10;17.10;;;6.40;99.90;;;;;;5087638;28;20204;-78
2023/03/05 12:51:35;;;;;;;17.67;15.87;;;6.30;99.90;;;;;;5091492;28;20698;-78
2023/03/05 12:54:28;;;;;;;18.27;16.27;;;6.30;99.90;;;;;;5091845;28;20193;-79
2023/03/05 12:56:56;;;;;;;18.20;16.30;;;6.30;99.90;;;;;;5093400;28;20236;-78
2023/03/05 12:59:29;;;;;;;18.30;16.50;;;6.30;99.90;;;;;;5085602;28;20693;-79
2023/03/05 13:01:58;;;;;;;17.73;15.90;;;6.30;99.90;;;;;;5091282;28;20229;-79
2023/03/05 13:04:29;;;;;;;22.57;18.27;;;6.20;99.90;;;;;;5086875;28;20209;-79
2023/03/05 13:07:03;;;;;;;18.00;15.80;;;6.10;99.90;;;;;;5091910;28;20200;-78
2023/03/05 13:09:33;;;;;;;18.93;16.17;;;6.10;99.90;;;;;;5089856;28;20210;-79
2023/03/05 13:12:03;;;;;;;19.57;17.10;;;6.10;99.90;;;;;;5085570;28;20222;-79
2023/03/05 13:14:34;;;;;;;18.30;16.40;;;6.10;99.90;;;;;;5088633;28;20597;-79
2023/03/05 13:17:02;;;;;;;19.13;16.90;;;6.10;99.90;;;;;;5086093;28;20203;-78
2023/03/05 13:19:31;;;;;;;19.93;17.83;;;6.10;99.90;;;;;;5093594;28;20662;-78
2023/03/05 13:22:01;;;;;;;20.30;18.10;;;6.10;99.90;;;;;;5083810;28;20312;-78
2023/03/05 13:24:29;;;;;;;20.00;16.90;;;6.00;99.90;;;;;;5087772;28;20203;-78
2023/03/05 13:26:56;;;;;;;17.83;15.90;;;6.00;99.90;;;;;;5083860;28;20208;-78
2023/03/05 13:29:27;;;;;;;21.30;17.37;;;6.00;99.90;;;;;;5091628;28;20203;-78
2023/03/05 13:31:56;;;;;;;21.10;18.43;;;6.00;99.90;;;;;;5085219;28;20216;-78
2023/03/05 13:34:25;;;;;;;23.23;18.50;;;5.90;99.90;;;;;;5100224;28;20202;-78
2023/03/05 13:36:57;;;;;;;21.73;18.87;;;5.90;99.90;;;;;;5081854;28;20588;-78
2023/03/05 13:39:31;;;;;;;21.17;17.60;;;5.90;99.90;;;;;;5089873;28;20267;-78
2023/03/05 13:42:04;;;;;;;21.23;17.97;;;5.90;99.90;;;;;;5086789;28;20249;-78
2023/03/05 13:44:33;;;;;;;22.00;19.47;;;5.90;99.90;;;;;;5093116;28;20211;-78
2023/03/05 13:47:15;;;;;;;21.70;18.70;;;5.90;99.90;;;;;;5088297;28;20196;-79
2023/03/05 13:49:42;;;;;;;25.70;19.33;;;5.90;99.90;;;;;;5088364;28;20291;-78
2023/03/05 13:52:10;;;;;;;21.53;18.60;;;5.80;99.90;;;;;;5094065;28;20219;-78
2023/03/05 13:54:40;;;;;;;22.13;19.37;;;5.80;99.90;;;;;;5090292;28;20206;-79
2023/03/05 13:57:08;;;;;;;21.43;19.03;;;5.70;99.90;;;;;;5082439;28;20199;-78
2023/03/05 14:07:09;;;;;;;23.17;18.87;;;5.70;99.90;;;;;;4945396;28;20207;-78
2023/03/05 14:13:47;;;;;;;25.00;21.30;;;5.80;99.90;;;;;;4893822;29;20201;-77
2023/03/05 14:16:35;;;;;;;27.17;21.10;;;5.80;99.90;;;;;;4958251;28;20214;-79
2023/03/05 14:19:46;;;;;;;23.60;19.80;;;5.70;99.90;;;;;;5118107;27;20286;-78
2023/03/05 14:22:30;;;;;;;25.50;18.73;;;5.70;99.90;;;;;;5088266;28;20211;-77
2023/03/05 14:24:57;;;;;;;21.67;19.30;;;5.70;99.90;;;;;;5090119;28;20256;-78
2023/03/05 14:27:23;;;;;;;21.30;18.77;;;5.70;99.90;;;;;;5092346;28;20202;-78
2023/03/05 14:29:52;;;;;;;23.27;20.20;;;5.60;99.90;;;;;;5092146;28;20202;-78
2023/03/05 14:32:24;;;;;;;21.07;18.57;;;5.70;99.90;;;;;;5092864;28;20701;-78
2023/03/05 14:34:55;;;;;;;21.67;18.20;;;5.70;99.90;;;;;;5091807;28;20208;-78
2023/03/05 14:37:25;;;;;;;23.97;19.50;;;5.80;99.90;;;;;;5088557;28;20199;-78
2023/03/05 14:39:54;;;;;;;21.80;19.50;;;5.80;99.90;;;;;;5092159;28;20209;-78
2023/03/05 14:42:27;;;;;;;23.20;19.50;;;5.70;99.90;;;;;;5086272;28;20268;-80
2023/03/05 14:44:57;;;;;;;25.27;19.93;;;5.60;99.90;;;;;;5124902;27;20214;-77
2023/03/05 14:47:25;;;;;;;21.90;18.57;;;5.70;99.90;;;;;;5085930;28;20799;-78
2023/03/05 14:49:52;;;;;;;23.13;18.80;;;5.60;99.90;;;;;;5093167;28;20199;-77
2023/03/05 14:52:21;;;;;;;25.00;21.10;;;5.60;99.90;;;;;;5087073;28;20213;-80
2023/03/05 14:54:48;;;;;;;21.53;18.90;;;5.60;99.90;;;;;;5090618;28;20253;-78
2023/03/05 14:57:18;;;;;;;23.03;18.73;;;5.50;99.90;;;;;;5119584;27;20209;-77
2023/03/05 14:59:46;;;;;;;21.43;18.73;;;5.50;99.90;;;;;;5092115;28;20199;-78
2023/03/05 15:02:17;;;;;;;25.77;19.93;;;5.60;99.90;;;;;;5089522;28;20753;-79
2023/03/05 15:04:45;;;;;;;22.13;19.67;;;5.50;99.90;;;;;;5082590;28;20743;-78
2023/03/05 15:07:17;;;;;;;21.90;19.03;;;5.50;99.90;;;;;;5086780;28;20322;-79
2023/03/05 15:09:45;;;;;;;22.27;19.83;;;5.50;99.90;;;;;;5118568;28;20216;-78
2023/03/05 15:12:13;;;;;;;24.00;19.40;;;5.50;99.90;;;;;;5083316;28;20260;-78
2023/03/05 15:14:41;;;;;;;26.17;19.90;;;5.60;99.90;;;;;;5100429;28;20660;-79
2023/03/05 15:17:17;;;;;;;23.57;19.90;;;5.60;99.90;;;;;;5093552;28;20207;-78
2023/03/05 15:19:45;;;;;;;27.77;20.57;;;5.60;99.90;;;;;;5091702;28;20188;-79
2023/03/05 15:22:13;;;;;;;24.60;20.00;;;5.60;99.90;;;;;;5092609;28;20235;-78
2023/03/05 15:24:42;;;;;;;23.17;19.77;;;5.60;99.90;;;;;;5092396;28;20201;-79
2023/03/05 15:27:39;;;;;;;22.90;18.73;;;5.50;99.90;;;;;;5091526;28;20200;-78
2023/03/05 15:34:51;;;;;;;21.40;18.13;;;5.50;99.90;;;;;;4981021;28;20218;-78
2023/03/05 15:37:34;;;;;;;22.70;18.93;;;5.50;99.90;;;;;;5113373;28;20205;-78
2023/03/05 15:40:01;;;;;;;20.10;17.43;;;5.40;99.90;;;;;;5089065;28;20605;-78
2023/03/05 15:42:27;;;;;;;22.20;18.93;;;5.40;99.90;;;;;;5092407;28;20218;-78
2023/03/05 15:45:05;;;;;;;22.27;19.73;;;5.40;99.90;;;;;;5090339;28;20253;-85
2023/03/05 15:47:32;;;;;;;22.83;20.20;;;5.40;99.90;;;;;;5089317;28;20277;-85
2023/03/05 15:49:58;;;;;;;24.13;18.63;;;5.40;99.90;;;;;;5094571;28;20560;-85
2023/03/05 15:52:25;;;;;;;21.63;18.60;;;5.40;99.90;;;;;;5089349;28;20222;-85
2023/03/05 15:54:53;;;;;;;21.90;18.27;;;5.30;99.90;;;;;;5092756;28;20233;-84
2023/03/05 15:57:21;;;;;;;20.90;18.23;;;5.40;99.90;;;;;;5123737;27;20197;-82
2023/03/05 15:59:48;;;;;;;22.30;19.50;;;5.30;99.90;;;;;;5083819;28;20237;-85
2023/03/05 16:02:15;;;;;;;23.23;19.20;;;5.30;99.90;;;;;;5094189;28;20711;-84
2023/03/05 16:04:42;;;;;;;25.50;21.43;;;5.30;99.90;;;;;;5093031;28;20199;-85
2023/03/05 16:07:09;;;;;;;22.13;18.23;;;5.30;99.90;;;;;;5093987;28;20195;-86
2023/03/05 16:09:39;;;;;;;26.40;20.07;;;5.20;99.90;;;;;;5123506;27;20210;-84